createdAt,value
2024-05-09T00:00:22.009Z,103008.19
2024-05-09T00:05:19.147Z,102987.88
2024-05-09T00:10:18.206Z,103019.50
2024-05-09T00:15:17.966Z,102962.81
2024-05-09T00:20:17.580Z,102999.59
2024-05-09T00:25:16.447Z,102957.72
2024-05-09T00:30:14.367Z,102996.16
2024-05-09T00:35:10.036Z,102984.13
2024-05-09T00:40:02.797Z,102982.88
2024-05-09T00:44:55.472Z,102977.69
2024-05-09T00:49:51.466Z,102969.03
2024-05-09T00:54:44.081Z,102924.72
2024-05-09T00:59:36.843Z,102961.53
2024-05-09T01:04:29.510Z,102987.03
2024-05-09T01:09:22.038Z,102942.38
2024-05-09T01:14:14.433Z,102966.84
2024-05-09T01:19:16.605Z,102970.69
2024-05-09T01:24:08.993Z,102966.50
2024-05-09T01:29:01.536Z,102967.56
2024-05-09T01:33:54.019Z,102944.03
2024-05-09T01:38:46.476Z,102938.72
2024-05-09T01:43:38.909Z,102979.00
2024-05-09T01:48:31.479Z,102968.63
2024-05-09T01:53:24.070Z,102977.47
2024-05-09T01:58:16.581Z,102964.31
2024-05-09T02:03:14.021Z,102961.84
2024-05-09T02:08:15.234Z,102941.69
2024-05-09T02:13:08.103Z,102886.72
2024-05-09T02:18:01.127Z,102925.38
2024-05-09T02:22:55.114Z,102979.03
2024-05-09T02:27:47.827Z,102916.97
2024-05-09T02:32:40.531Z,102941.66
2024-05-09T02:37:33.116Z,102902.66
2024-05-09T02:42:27.612Z,102966.63
2024-05-09T02:47:20.279Z,102957.88
2024-05-09T02:52:12.869Z,102958.88
2024-05-09T02:57:05.437Z,102959.75
2024-05-09T03:01:58.079Z,102947.59
2024-05-09T03:06:50.633Z,102939.91
2024-05-09T03:11:43.099Z,102923.25
2024-05-09T03:16:39.200Z,102917.28
2024-05-09T03:21:31.536Z,102942.91
2024-05-09T03:26:23.944Z,102911.78
2024-05-09T03:31:18.942Z,102923.22
2024-05-09T03:36:11.586Z,102945.34
2024-05-09T03:41:04.062Z,102930.38
2024-05-09T03:45:56.825Z,102937.56
2024-05-09T03:50:49.371Z,102961.16
2024-05-09T03:55:41.951Z,102946.59
2024-05-09T04:00:38.536Z,102945.53
2024-05-09T04:05:32.978Z,102965.00
2024-05-09T04:10:32.455Z,102950.34
2024-05-09T04:15:27.581Z,102945.78
2024-05-09T04:20:29.288Z,102955.66
2024-05-09T04:25:29.881Z,102904.91
2024-05-09T04:30:34.266Z,102945.78
2024-05-09T04:35:31.271Z,102909.25
2024-05-09T04:40:31.220Z,102912.84
2024-05-09T04:45:27.341Z,102921.41
2024-05-09T04:50:29.317Z,102928.16
2024-05-09T04:55:28.498Z,102952.53
2024-05-09T05:00:28.929Z,102970.81
2024-05-09T05:05:28.129Z,102933.03
2024-05-09T05:10:25.524Z,102933.75
2024-05-09T05:15:22.589Z,102974.72
2024-05-09T05:20:17.805Z,102978.88
2024-05-09T05:25:13.784Z,102969.03
2024-05-09T05:30:11.791Z,102990.69
2024-05-09T05:35:07.311Z,102981.59
2024-05-09T05:40:00.037Z,102943.66
2024-05-09T05:44:52.535Z,102982.59
2024-05-09T05:49:44.996Z,102995.66
2024-05-09T05:54:37.630Z,102978.47
2024-05-09T05:59:30.211Z,102925.91
2024-05-09T06:04:22.767Z,102971.00
2024-05-09T06:09:15.248Z,102941.81
2024-05-09T06:14:07.932Z,102962.66
2024-05-09T06:19:02.222Z,102995.47
2024-05-09T06:23:54.843Z,102975.16
2024-05-09T06:28:47.591Z,102938.09
2024-05-09T06:33:43.556Z,102971.66
2024-05-09T06:38:38.555Z,102977.94
2024-05-09T06:43:31.186Z,102980.97
2024-05-09T06:48:24.796Z,102931.69
2024-05-09T06:53:18.075Z,102959.09
2024-05-09T06:58:10.778Z,102976.44
2024-05-09T07:03:08.303Z,102955.16
2024-05-09T07:08:01.098Z,102914.53
2024-05-09T07:12:53.636Z,102911.16
2024-05-09T07:17:46.192Z,102961.25
2024-05-09T07:22:38.796Z,102912.94
2024-05-09T07:27:31.382Z,102958.25
2024-05-09T07:32:24.809Z,102964.84
2024-05-09T07:37:17.731Z,102914.91
2024-05-09T07:42:10.689Z,102985.03
2024-05-09T07:48:14.182Z,102909.72
2024-05-09T07:53:29.908Z,102972.38
2024-05-09T07:57:28.667Z,102966.47
2024-05-09T08:02:21.614Z,102964.91
2024-05-09T08:07:14.242Z,102924.81
2024-05-09T08:12:09.570Z,102969.69
2024-05-09T08:17:04.344Z,102961.34
2024-05-09T08:21:57.010Z,102939.66
2024-05-09T08:26:49.686Z,102875.00
2024-05-09T08:31:43.430Z,102949.75
2024-05-09T08:36:36.134Z,102962.78
2024-05-09T08:41:29.642Z,102963.31
2024-05-09T08:46:22.951Z,102936.81
2024-05-09T08:51:16.441Z,102890.94
2024-05-09T08:56:12.235Z,102937.75
2024-05-09T09:01:05.466Z,102938.06
2024-05-09T09:06:09.024Z,102960.38
2024-05-09T09:11:19.672Z,102964.25
2024-05-09T09:16:13.035Z,102926.94
2024-05-09T09:21:05.745Z,102928.19
2024-05-09T09:26:01.597Z,102936.94
2024-05-09T09:30:54.411Z,102935.88
2024-05-09T09:35:46.954Z,102930.34
2024-05-09T09:40:49.715Z,102916.75
2024-05-09T09:45:44.755Z,102911.59
2024-05-09T09:50:38.151Z,102934.13
2024-05-09T09:55:33.456Z,102916.16
2024-05-09T10:00:32.968Z,102866.41
2024-05-09T10:05:27.183Z,102915.44
2024-05-09T10:10:31.416Z,102906.78
2024-05-09T10:15:27.703Z,102914.75
2024-05-09T10:20:28.146Z,102834.44
2024-05-09T10:25:25.323Z,102825.38
2024-05-09T10:35:27.362Z,102914.19
2024-05-09T10:40:26.437Z,102822.44
2024-05-09T10:45:24.735Z,102895.97
2024-05-09T10:50:25.740Z,102892.25
2024-05-09T10:55:21.664Z,102890.81
2024-05-09T11:00:23.312Z,102849.97
2024-05-09T11:05:27.235Z,102891.56
2024-05-09T11:10:27.414Z,102860.88
2024-05-09T11:15:27.629Z,102839.91
2024-05-09T11:20:29.129Z,102827.16
2024-05-09T11:25:37.029Z,102869.00
2024-05-09T11:30:34.851Z,102868.59
2024-05-09T11:35:29.653Z,102865.09
2024-05-09T11:40:28.083Z,102852.75
2024-05-09T11:45:25.825Z,102857.56
2024-05-09T11:50:26.618Z,102844.72
2024-05-09T11:55:27.213Z,102846.84
2024-05-09T12:00:29.176Z,102842.19
2024-05-09T12:05:29.123Z,102848.09
2024-05-09T12:10:26.262Z,102845.00
2024-05-09T12:15:24.648Z,102854.41
2024-05-09T12:20:25.787Z,102840.53
2024-05-09T12:25:26.081Z,102826.16
2024-05-09T12:30:29.073Z,102830.09
2024-05-09T12:35:29.488Z,102822.66
2024-05-09T12:40:30.750Z,102818.44
2024-05-09T12:45:27.373Z,102813.41
2024-05-09T12:50:28.799Z,102801.94
2024-05-09T12:55:24.445Z,102801.56
2024-05-09T13:00:23.814Z,102814.31
2024-05-09T13:05:20.802Z,102815.81
2024-05-09T13:10:19.830Z,102803.44
2024-05-09T13:15:15.733Z,102790.94
2024-05-09T13:20:14.886Z,102761.88
2024-05-09T13:25:13.330Z,102792.59
2024-05-09T13:30:11.854Z,102801.97
2024-05-09T13:35:07.496Z,102768.09
2024-05-09T13:40:01.169Z,102788.34
2024-05-09T13:44:54.444Z,102776.34
2024-05-09T13:49:47.784Z,102770.91
2024-05-09T13:54:40.206Z,102751.00
2024-05-09T13:59:32.761Z,102785.69
2024-05-09T14:04:25.445Z,102780.34
2024-05-09T14:09:17.991Z,102768.91
2024-05-09T14:14:10.391Z,102760.03
2024-05-09T14:19:03.285Z,102766.94
2024-05-09T14:23:55.717Z,102746.88
2024-05-09T14:28:48.123Z,102724.19
2024-05-09T14:33:40.681Z,102752.91
2024-05-09T14:38:33.162Z,102726.91
2024-05-09T14:43:25.948Z,102735.53
2024-05-09T14:48:20.208Z,102749.22
2024-05-09T14:53:14.004Z,102733.63
2024-05-09T14:58:07.567Z,102727.78
2024-05-09T15:03:00.700Z,102703.88
2024-05-09T15:07:53.659Z,102724.41
2024-05-09T15:12:46.294Z,102706.88
2024-05-09T15:17:41.970Z,102686.34
2024-05-09T15:22:34.450Z,102670.06
2024-05-09T15:27:26.895Z,102685.75
2024-05-09T15:32:19.458Z,102685.91
2024-05-09T15:37:12.466Z,102687.03
2024-05-09T15:42:05.165Z,102677.66
2024-05-09T15:46:57.750Z,102671.84
2024-05-09T15:51:50.436Z,102668.63
2024-05-09T15:56:47.406Z,102669.13
2024-05-09T16:01:40.148Z,102620.81
2024-05-09T16:06:33.941Z,102644.63
2024-05-09T16:11:27.711Z,102654.28
2024-05-09T16:16:20.289Z,102643.28
2024-05-09T16:21:12.786Z,102653.78
2024-05-09T16:26:06.407Z,102656.13
2024-05-09T16:31:01.455Z,102655.38
2024-05-09T16:35:54.036Z,102648.84
2024-05-09T16:40:46.604Z,102644.31
2024-05-09T16:45:40.960Z,102625.97
2024-05-09T16:50:35.353Z,102639.19
2024-05-09T16:55:28.563Z,102594.09
2024-05-09T17:00:31.248Z,102632.78
2024-05-09T17:05:32.100Z,102625.00
2024-05-09T17:10:31.328Z,102632.91
2024-05-09T17:15:25.837Z,102622.44
2024-05-09T17:20:28.917Z,102634.53
2024-05-09T17:25:25.890Z,102629.59
2024-05-09T17:30:28.301Z,102627.75
2024-05-09T17:35:25.060Z,102628.50
2024-05-09T17:40:26.942Z,102629.88
2024-05-09T17:45:23.617Z,102604.31
2024-05-09T17:50:23.764Z,102609.50
2024-05-09T17:55:20.250Z,102610.06
2024-05-09T18:00:17.337Z,102600.91
2024-05-09T18:05:12.318Z,102618.47
2024-05-09T18:10:10.145Z,102610.78
2024-05-09T18:15:08.283Z,102620.19
2024-05-09T18:20:00.751Z,102618.94
2024-05-09T18:24:53.347Z,102612.78
2024-05-09T18:29:45.850Z,102613.50
2024-05-09T18:34:38.364Z,102612.63
2024-05-09T18:39:30.988Z,102626.09
2024-05-09T18:44:23.540Z,102620.63
2024-05-09T18:49:16.294Z,102606.66
2024-05-09T18:54:08.958Z,102615.19
2024-05-09T18:59:01.482Z,102618.41
2024-05-09T19:03:54.073Z,102598.81
2024-05-09T19:08:46.529Z,102602.13
2024-05-09T19:13:38.899Z,102610.41
2024-05-09T19:18:31.638Z,102633.81
2024-05-09T19:23:24.203Z,102614.41
2024-05-09T19:28:16.686Z,102631.09
2024-05-09T19:33:11.886Z,102630.69
2024-05-09T19:38:05.755Z,102629.63
2024-05-09T19:42:58.236Z,102625.13
2024-05-09T19:47:51.229Z,102636.94
2024-05-09T19:52:43.894Z,102619.44
2024-05-09T19:57:36.247Z,102638.06
2024-05-09T20:02:31.410Z,102622.19
2024-05-09T20:07:23.977Z,102641.69
2024-05-09T20:12:16.553Z,102617.44
2024-05-09T20:17:08.913Z,102594.03
2024-05-09T20:22:01.611Z,102620.25
2024-05-09T20:26:54.065Z,102625.75
2024-05-09T20:31:46.617Z,102653.78
2024-05-09T20:36:39.175Z,102615.75
2024-05-09T20:41:33.596Z,102597.53
2024-05-09T20:46:26.510Z,102656.88
2024-05-09T20:51:18.978Z,102635.72
2024-05-09T20:56:11.430Z,102640.47
2024-05-09T21:01:03.981Z,102636.88
2024-05-09T21:05:56.609Z,102639.88
2024-05-09T21:10:49.448Z,102618.97
2024-05-09T21:15:42.002Z,102632.94
2024-05-09T21:20:35.178Z,102651.56
2024-05-09T21:25:28.010Z,102651.66
2024-05-09T21:30:31.564Z,102627.06
2024-05-09T21:35:32.709Z,102615.53
2024-05-09T21:40:31.632Z,102602.31
2024-05-09T21:45:27.426Z,102633.75
2024-05-09T21:50:27.505Z,102641.47
2024-05-09T21:55:24.531Z,102650.13
2024-05-09T22:00:28.557Z,102639.94
2024-05-09T22:05:27.880Z,102628.97
2024-05-09T22:10:26.465Z,102556.69
2024-05-09T22:15:24.657Z,102625.09
2024-05-09T22:20:25.063Z,102585.69
2024-05-09T22:25:21.804Z,102631.25
2024-05-09T22:30:21.268Z,102617.78
2024-05-09T22:35:19.741Z,102622.41
2024-05-09T22:40:20.694Z,102634.22
2024-05-09T22:45:21.080Z,102625.72
2024-05-09T22:50:18.603Z,102641.44
2024-05-09T22:55:21.435Z,102654.19
2024-05-09T23:00:16.061Z,102655.06
2024-05-09T23:05:09.026Z,102635.19
2024-05-09T23:10:01.792Z,102608.16
2024-05-09T23:14:54.407Z,102648.47
2024-05-09T23:19:46.832Z,102639.19
2024-05-09T23:24:39.760Z,102639.59
2024-05-09T23:29:32.327Z,102644.91
2024-05-09T23:34:24.903Z,102629.56
2024-05-09T23:39:19.120Z,102585.75
2024-05-09T23:44:11.652Z,102609.34
2024-05-09T23:49:04.235Z,102621.97
2024-05-09T23:53:56.790Z,102617.44
2024-05-09T23:58:49.377Z,102625.25
